Time;durP1;ratioP1;P1;durP2;ratioP2;P2;SDS_P1;SDS_P2;PMS_P1;PMS_P2;Temp;Humidity;BMP_temperature;BMP_pressure;BME280_temperature;BME280_humidity;BME280_pressure;Samples;Min_cycle;Max_cycle;Signal;HPM_P1;HPM_P2
2022/03/29 00:01:56;;;;;;;55.50;34.20;;;;;;;11.57;74.42;99692.03;5113704;28;20245;-52
2022/03/29 00:04:23;;;;;;;52.73;33.40;;;;;;;11.58;74.13;99686.78;5113569;28;20591;-52
2022/03/29 00:06:50;;;;;;;48.23;32.23;;;;;;;11.59;74.16;99692.84;5113821;28;20245;-53
2022/03/29 00:09:18;;;;;;;47.60;31.97;;;;;;;11.59;73.64;99675.50;5113874;28;20586;-53
2022/03/29 00:11:45;;;;;;;48.80;32.97;;;;;;;11.68;73.63;99682.16;5113827;28;20580;-53
2022/03/29 00:14:13;;;;;;;50.23;32.03;;;;;;;11.56;73.91;99678.19;5113690;28;20221;-52
2022/03/29 00:16:41;;;;;;;47.83;31.63;;;;;;;11.56;73.94;99680.78;5113175;28;20238;-52
2022/03/29 00:19:08;;;;;;;46.97;33.03;;;;;;;11.42;74.67;99672.53;5113404;28;20202;-51
2022/03/29 00:21:35;;;;;;;56.90;32.97;;;;;;;11.36;75.18;99674.47;5113377;28;20191;-52
2022/03/29 00:24:03;;;;;;;49.60;32.00;;;;;;;11.37;76.10;99677.03;5113287;28;20223;-52
2022/03/29 00:26:30;;;;;;;55.37;31.83;;;;;;;11.21;76.50;99657.56;5113190;28;20195;-52
2022/03/29 00:28:57;;;;;;;52.73;33.73;;;;;;;11.25;75.82;99661.78;5113283;28;20218;-52
2022/03/29 00:31:25;;;;;;;50.50;32.80;;;;;;;11.31;76.05;99669.41;5113110;28;20205;-52
2022/03/29 00:33:52;;;;;;;44.43;31.30;;;;;;;11.28;76.47;99674.72;5113414;28;20680;-52
2022/03/29 00:36:19;;;;;;;51.87;32.37;;;;;;;11.21;76.69;99675.75;5113151;28;20205;-52
2022/03/29 00:38:47;;;;;;;55.70;32.17;;;;;;;11.13;77.16;99676.00;5113225;28;20205;-53
2022/03/29 00:41:14;;;;;;;49.33;30.90;;;;;;;11.09;77.41;99676.09;5113008;28;20662;-52
2022/03/29 00:43:41;;;;;;;50.30;32.27;;;;;;;10.86;78.24;99671.56;5112990;28;20218;-53
2022/03/29 00:46:08;;;;;;;53.20;32.40;;;;;;;10.77;79.26;99661.44;5112232;28;20677;-51
2022/03/29 00:48:38;;;;;;;51.03;32.57;;;;;;;10.82;79.45;99657.81;5112651;28;20278;-52
2022/03/29 00:51:06;;;;;;;50.73;31.87;;;;;;;10.80;79.21;99657.00;5112801;28;20285;-52
2022/03/29 00:53:33;;;;;;;46.50;30.83;;;;;;;10.76;79.51;99649.34;5112829;28;20550;-53
2022/03/29 00:56:02;;;;;;;47.53;30.70;;;;;;;10.69;79.97;99648.66;5112741;28;20575;-52
2022/03/29 00:58:30;;;;;;;49.53;31.43;;;;;;;10.74;79.88;99646.78;5112752;28;20198;-51
2022/03/29 01:01:01;;;;;;;47.43;31.70;;;;;;;10.61;80.89;99635.03;5112899;28;20271;-52
2022/03/29 01:03:28;;;;;;;44.27;30.23;;;;;;;10.77;80.03;99633.72;5112414;28;20222;-52
2022/03/29 01:05:56;;;;;;;49.67;30.40;;;;;;;10.72;80.95;99637.34;5112593;28;20198;-52
2022/03/29 01:08:25;;;;;;;47.40;30.30;;;;;;;10.72;80.58;99632.97;5112368;28;20237;-52
2022/03/29 01:10:52;;;;;;;48.97;29.57;;;;;;;10.69;80.35;99633.09;5112474;28;20190;-51
2022/03/29 01:13:19;;;;;;;49.63;29.03;;;;;;;10.70;80.81;99628.75;5112364;28;20199;-52
2022/03/29 01:15:47;;;;;;;42.57;29.87;;;;;;;10.76;79.27;99624.22;5112273;28;20229;-53
2022/03/29 01:18:17;;;;;;;45.77;28.87;;;;;;;10.83;79.32;99620.59;5112314;28;20194;-53
2022/03/29 01:20:48;;;;;;;47.93;30.70;;;;;;;10.85;79.11;99623.09;5112322;28;20623;-53
2022/03/29 01:23:17;;;;;;;49.23;29.17;;;;;;;10.85;78.85;99618.78;5112137;28;20225;-52
2022/03/29 01:25:45;;;;;;;47.43;29.53;;;;;;;10.79;78.98;99616.34;5111995;28;20230;-51
2022/03/29 01:28:16;;;;;;;43.77;30.30;;;;;;;10.81;79.03;99616.31;5112141;28;20209;-52
2022/03/29 01:30:43;;;;;;;42.40;29.07;;;;;;;10.75;78.93;99606.09;5112092;28;20240;-52
2022/03/29 01:33:11;;;;;;;56.03;29.90;;;;;;;10.66;79.67;99601.16;5112091;28;20651;-52
2022/03/29 01:35:40;;;;;;;40.47;28.70;;;;;;;10.73;78.88;99594.88;5111834;28;20216;-52
2022/03/29 01:38:07;;;;;;;44.73;29.23;;;;;;;10.78;78.61;99596.47;5111758;28;20234;-53
2022/03/29 01:40:35;;;;;;;48.03;29.63;;;;;;;10.80;78.35;99586.91;5111748;28;20201;-52
2022/03/29 01:43:03;;;;;;;42.47;28.93;;;;;;;10.78;78.58;99583.50;5111759;28;20271;-52
2022/03/29 01:45:32;;;;;;;46.07;28.93;;;;;;;10.77;78.46;99580.94;5111767;28;20191;-51
2022/03/29 01:47:59;;;;;;;42.30;29.80;;;;;;;10.74;79.20;99587.06;5111670;28;20294;-52
2022/03/29 01:50:27;;;;;;;47.20;29.63;;;;;;;10.68;79.58;99579.47;5111586;28;20687;-52
2022/03/29 01:52:54;;;;;;;45.13;29.90;;;;;;;10.58;79.58;99569.38;5111972;28;20213;-52
2022/03/29 01:55:22;;;;;;;37.67;27.83;;;;;;;10.63;78.93;99563.16;5111930;28;20577;-52
2022/03/29 01:57:53;;;;;;;40.67;27.33;;;;;;;10.70;79.79;99567.31;5111665;28;20212;-53
2022/03/29 02:00:33;;;;;;;46.43;28.37;;;;;;;10.63;79.82;99576.13;5111381;28;20226;-52
2022/03/29 02:03:02;;;;;;;37.63;28.27;;;;;;;10.59;79.93;99565.91;5111329;28;20218;-52
2022/03/29 02:05:32;;;;;;;44.30;27.47;;;;;;;10.65;79.64;99560.53;5111467;28;20210;-52
2022/03/29 02:08:00;;;;;;;44.30;28.93;;;;;;;10.65;79.77;99555.34;5111333;28;20194;-52
2022/03/29 02:10:27;;;;;;;43.23;28.87;;;;;;;10.53;80.17;99546.16;5111443;28;20201;-52
2022/03/29 02:12:56;;;;;;;47.10;28.20;;;;;;;10.50;80.21;99552.25;5111458;28;20696;-52
2022/03/29 02:15:23;;;;;;;43.73;28.03;;;;;;;10.49;80.02;99550.59;5111233;28;20195;-52
2022/03/29 02:17:50;;;;;;;41.90;27.17;;;;;;;10.42;79.85;99540.41;5110980;28;20198;-53
2022/03/29 02:20:18;;;;;;;44.60;27.17;;;;;;;10.49;80.42;99534.16;5111187;28;20682;-52
2022/03/29 02:22:46;;;;;;;42.37;26.83;;;;;;;10.42;79.77;99530.03;5111106;28;20603;-51
2022/03/29 02:25:13;;;;;;;41.90;26.93;;;;;;;10.40;80.43;99542.19;5111314;28;20197;-51
2022/03/29 02:27:41;;;;;;;42.80;26.20;;;;;;;10.41;80.40;99538.69;5111044;28;20663;-51
2022/03/29 02:30:11;;;;;;;38.63;26.77;;;;;;;10.38;80.13;99538.81;5110981;28;20217;-53
2022/03/29 02:32:39;;;;;;;41.23;26.37;;;;;;;10.39;80.07;99543.06;5111040;28;20713;-52
2022/03/29 02:35:08;;;;;;;47.03;25.90;;;;;;;10.37;80.68;99532.75;5111228;28;20195;-51
2022/03/29 02:37:35;;;;;;;47.30;26.43;;;;;;;10.36;80.89;99531.06;5110703;28;20200;-51
2022/03/29 02:40:03;;;;;;;40.77;26.80;;;;;;;10.41;80.24;99530.91;5110491;28;20199;-51
2022/03/29 02:42:30;;;;;;;38.00;26.80;;;;;;;10.31;81.66;99532.06;5110963;28;20195;-51
2022/03/29 02:44:57;;;;;;;38.37;25.73;;;;;;;10.27;82.10;99541.66;5110729;28;20194;-52
2022/03/29 02:47:25;;;;;;;38.57;25.73;;;;;;;10.28;80.82;99534.72;5110570;28;20197;-51
2022/03/29 02:49:52;;;;;;;34.97;25.63;;;;;;;10.27;81.29;99528.69;5110791;28;20206;-52
2022/03/29 02:52:19;;;;;;;40.60;26.20;;;;;;;10.27;81.09;99525.28;5110507;28;20197;-52
2022/03/29 02:54:46;;;;;;;32.90;23.53;;;;;;;10.24;81.19;99520.16;5110621;28;20654;-51
2022/03/29 02:57:13;;;;;;;40.40;23.77;;;;;;;10.17;81.52;99524.63;5110577;28;20571;-54
2022/03/29 02:59:40;;;;;;;39.07;24.57;;;;;;;10.17;81.70;99515.09;5110422;28;20199;-52
2022/03/29 03:02:07;;;;;;;36.03;24.27;;;;;;;10.21;81.26;99518.50;5110535;28;20194;-53
2022/03/29 03:04:35;;;;;;;36.77;24.93;;;;;;;10.15;81.46;99511.72;5110498;28;20304;-53
2022/03/29 03:07:02;;;;;;;35.93;24.90;;;;;;;10.21;81.79;99517.66;5110210;28;20199;-51
2022/03/29 03:09:29;;;;;;;33.93;25.37;;;;;;;10.22;81.11;99511.56;5110220;28;20484;-52
2022/03/29 03:11:56;;;;;;;35.30;24.53;;;;;;;10.14;82.07;99503.97;5110398;28;20205;-51
2022/03/29 03:14:23;;;;;;;40.17;26.13;;;;;;;10.12;82.49;99514.38;5110227;28;20186;-52
2022/03/29 03:16:50;;;;;;;38.93;26.83;;;;;;;10.02;83.63;99512.09;5110213;28;20266;-51
2022/03/29 03:19:18;;;;;;;34.10;25.67;;;;;;;9.94;84.03;99494.13;5110263;28;20198;-52
2022/03/29 03:21:46;;;;;;;44.93;26.73;;;;;;;9.98;84.85;99508.72;5110235;28;20191;-52
2022/03/29 03:24:14;;;;;;;40.00;26.33;;;;;;;9.97;85.09;99511.34;5110385;28;20728;-52
2022/03/29 03:26:41;;;;;;;42.97;27.87;;;;;;;9.92;86.30;99502.84;5110123;28;20198;-52
2022/03/29 03:29:08;;;;;;;37.87;26.80;;;;;;;9.89;85.65;99502.91;5110494;28;20204;-53
2022/03/29 03:31:35;;;;;;;43.13;25.60;;;;;;;9.90;85.71;99507.22;5110118;28;20195;-52
2022/03/29 03:34:02;;;;;;;37.60;25.57;;;;;;;9.80;86.44;99511.78;5110481;28;20190;-51
2022/03/29 03:36:29;;;;;;;35.43;26.27;;;;;;;9.84;85.23;99508.22;5110316;28;20205;-51
2022/03/29 03:38:57;;;;;;;46.70;27.03;;;;;;;9.90;85.57;99518.44;5110176;28;20765;-51
2022/03/29 03:41:24;;;;;;;37.53;26.20;;;;;;;9.85;86.33;99507.31;5110264;28;20286;-52
2022/03/29 03:43:51;;;;;;;37.37;25.63;;;;;;;9.85;86.17;99512.50;5110082;28;20218;-52
2022/03/29 03:46:18;;;;;;;43.63;26.53;;;;;;;9.84;86.29;99518.59;5109948;28;20199;-52
2022/03/29 03:48:45;;;;;;;36.83;25.73;;;;;;;9.80;86.60;99516.97;5109958;28;20197;-53
2022/03/29 03:51:12;;;;;;;42.67;25.83;;;;;;;9.75;86.62;99511.91;5109811;28;20709;-52
2022/03/29 03:53:39;;;;;;;42.27;27.67;;;;;;;9.70;87.73;99528.47;5109697;28;20290;-51
2022/03/29 03:56:07;;;;;;;40.90;26.40;;;;;;;9.74;86.93;99519.72;5109930;28;20199;-52
2022/03/29 03:58:34;;;;;;;46.13;27.50;;;;;;;9.74;87.24;99510.19;5110156;28;20199;-51
2022/03/29 04:01:01;;;;;;;37.77;26.30;;;;;;;9.74;87.20;99524.91;5110104;28;20205;-51
2022/03/29 04:03:28;;;;;;;50.63;28.17;;;;;;;9.75;87.50;99526.59;5119965;28;20826;-53
2022/03/29 04:05:55;;;;;;;60.33;28.93;;;;;;;9.77;88.54;99517.03;5122711;28;20314;-52
2022/03/29 04:08:22;;;;;;;48.47;27.23;;;;;;;9.70;88.41;99523.28;5109009;28;20230;-50
2022/03/29 04:10:49;;;;;;;54.33;29.40;;;;;;;9.77;89.24;99514.47;5109448;28;20218;-52
2022/03/29 04:13:19;;;;;;;49.90;28.43;;;;;;;9.72;89.10;99517.16;5109610;28;20230;-53
2022/03/29 04:15:46;;;;;;;68.33;32.70;;;;;;;9.72;88.52;99509.38;5109064;28;20238;-52
2022/03/29 04:18:13;;;;;;;57.20;31.87;;;;;;;9.68;89.75;99514.69;5109594;28;20215;-51
2022/03/29 04:20:40;;;;;;;57.27;31.43;;;;;;;9.66;90.37;99519.91;5130212;27;20224;-51
2022/03/29 04:23:08;;;;;;;51.63;32.97;;;;;;;9.61;91.48;99513.97;5133212;27;20218;-50
2022/03/29 04:25:35;;;;;;;66.90;38.20;;;;;;;9.57;91.95;99521.88;5133566;27;20704;-51
2022/03/29 04:28:02;;;;;;;71.80;42.73;;;;;;;9.62;91.11;99523.47;5115746;27;20218;-51
2022/03/29 04:30:30;;;;;;;79.57;42.63;;;;;;;9.76;89.82;99512.75;5117974;27;20270;-51
2022/03/29 04:32:58;;;;;;;77.30;43.53;;;;;;;9.89;89.53;99508.97;5122127;27;20232;-51
2022/03/29 04:35:25;;;;;;;75.07;43.40;;;;;;;10.09;87.56;99519.66;5121627;27;20271;-52
2022/03/29 04:37:53;;;;;;;93.60;48.83;;;;;;;10.06;87.39;99517.13;5112427;28;20226;-51
2022/03/29 04:40:20;;;;;;;104.07;46.70;;;;;;;10.09;86.89;99518.78;5112518;28;20789;-52
2022/03/29 04:42:49;;;;;;;91.93;48.43;;;;;;;10.15;86.96;99524.69;5112740;28;20224;-51
2022/03/29 04:45:18;;;;;;;105.17;47.97;;;;;;;10.27;85.49;99515.72;5112296;28;20248;-53
2022/03/29 04:47:48;;;;;;;128.20;50.77;;;;;;;10.48;84.63;99522.09;5112343;28;20218;-51
2022/03/29 04:50:17;;;;;;;103.07;52.57;;;;;;;10.57;83.10;99521.81;5120334;27;20297;-54
2022/03/29 04:52:46;;;;;;;83.70;43.37;;;;;;;10.53;82.29;99520.19;5122197;27;20690;-52
2022/03/29 04:55:14;;;;;;;77.33;41.63;;;;;;;10.60;81.50;99516.56;5121183;27;20712;-52
2022/03/29 04:57:42;;;;;;;78.20;42.27;;;;;;;10.61;80.93;99525.19;5121751;27;20710;-53
2022/03/29 05:00:10;;;;;;;87.03;42.70;;;;;;;10.79;79.50;99522.03;5123404;27;20241;-52
2022/03/29 05:02:37;;;;;;;86.40;44.20;;;;;;;10.76;79.64;99520.38;5118679;27;20223;-52
2022/03/29 05:05:07;;;;;;;86.03;43.93;;;;;;;10.95;78.71;99518.06;5122334;27;20222;-53
2022/03/29 05:07:34;;;;;;;86.73;43.00;;;;;;;11.05;77.83;99526.47;5120153;27;20232;-53
2022/03/29 05:10:00;;;;;;;79.47;40.57;;;;;;;11.09;77.24;99521.09;5130751;27;20198;-53
2022/03/29 05:12:27;;;;;;;88.97;40.47;;;;;;;11.16;76.26;99506.19;5125377;27;20208;-53
2022/03/29 05:14:55;;;;;;;92.23;40.67;;;;;;;11.46;75.01;99507.81;5120539;27;20278;-53
2022/03/29 05:17:21;;;;;;;86.97;42.20;;;;;;;11.83;72.99;99515.28;5112015;28;20222;-53
2022/03/29 05:19:48;;;;;;;73.20;38.60;;;;;;;12.30;69.60;99512.78;5116519;27;20190;-52
2022/03/29 05:22:17;;;;;;;86.47;39.67;;;;;;;12.68;67.86;99520.03;5122444;27;20590;-52
2022/03/29 05:24:43;;;;;;;96.03;41.70;;;;;;;13.15;65.44;99521.75;5117471;27;20774;-54
2022/03/29 05:27:10;;;;;;;88.07;38.37;;;;;;;13.56;62.92;99520.94;5112159;28;20682;-52
2022/03/29 05:29:38;;;;;;;79.33;38.53;;;;;;;14.01;60.37;99501.66;5118065;27;20591;-52
2022/03/29 05:32:06;;;;;;;83.57;37.37;;;;;;;14.71;58.41;99527.31;5126685;27;20186;-52
2022/03/29 05:34:33;;;;;;;63.57;36.07;;;;;;;15.17;56.22;99533.88;5111860;28;20197;-52
2022/03/29 05:37:00;;;;;;;82.27;39.20;;;;;;;15.17;55.42;99526.03;5114697;27;20559;-52
2022/03/29 05:39:28;;;;;;;84.70;36.87;;;;;;;15.47;55.25;99542.03;5121547;27;20229;-52
2022/03/29 05:41:55;;;;;;;78.00;42.70;;;;;;;15.92;53.49;99529.31;5121190;27;20214;-52
2022/03/29 05:44:22;;;;;;;79.10;42.50;;;;;;;16.32;52.27;99529.91;5120010;27;20225;-52
2022/03/29 05:49:33;;;;;;;80.87;43.20;;;;;;;17.44;49.32;99525.56;5120965;27;20216;-53
2022/03/29 05:52:00;;;;;;;76.37;41.97;;;;;;;17.75;47.93;99533.41;5119646;27;20211;-52
2022/03/29 05:54:28;;;;;;;65.10;44.57;;;;;;;17.69;47.58;99523.25;5118871;27;20217;-51
2022/03/29 05:56:55;;;;;;;107.20;64.60;;;;;;;17.33;48.28;99528.78;5121316;27;20289;-52
2022/03/29 05:59:22;;;;;;;122.50;88.23;;;;;;;17.64;47.74;99521.81;5118350;27;20226;-51
2022/03/29 06:01:49;;;;;;;128.90;90.10;;;;;;;18.28;46.49;99525.94;5119115;27;20223;-51
2022/03/29 06:04:17;;;;;;;122.47;87.07;;;;;;;18.90;44.75;99527.34;5115104;27;20309;-52
2022/03/29 06:06:45;;;;;;;116.85;71.78;;;;;;;19.42;43.55;99530.13;5116867;27;20276;-53
2022/03/29 06:09:12;;;;;;;112.45;68.18;;;;;;;19.35;42.88;99528.84;5112986;27;20202;-53
2022/03/29 06:11:40;;;;;;;109.38;63.70;;;;;;;19.71;42.36;99530.91;5119660;27;20209;-52
2022/03/29 06:14:07;;;;;;;105.50;59.65;;;;;;;20.07;41.29;99530.25;5131647;27;20200;-52
2022/03/29 06:16:34;;;;;;;102.00;59.25;;;;;;;20.69;40.46;99525.09;5120983;27;20713;-52
2022/03/29 06:19:01;;;;;;;98.65;56.10;;;;;;;21.26;39.43;99516.63;5106535;27;20199;-53
2022/03/29 06:21:27;;;;;;;87.00;55.08;;;;;;;21.74;38.16;99522.75;5098915;28;20194;-52
2022/03/29 06:23:54;;;;;;;95.55;58.53;;;;;;;21.97;37.88;99511.28;5129077;27;20193;-53
2022/03/29 06:26:21;;;;;;;110.00;57.15;;;;;;;22.19;37.44;99510.53;5131474;27;20194;-52
2022/03/29 06:28:50;;;;;;;98.82;58.22;;;;;;;22.43;36.92;99508.66;5131475;27;20194;-52
2022/03/29 06:31:16;;;;;;;100.68;58.20;;;;;;;22.60;36.63;99512.59;5131458;27;20225;-52
2022/03/29 06:33:43;;;;;;;82.22;54.95;;;;;;;22.62;36.31;99508.03;5126981;27;20198;-53
2022/03/29 06:36:11;;;;;;;74.15;47.95;;;;;;;22.87;36.16;99504.34;5131351;27;20233;-55
2022/03/29 06:38:37;;;;;;;65.57;39.15;;;;;;;22.82;36.05;99506.50;5131436;27;20237;-52
2022/03/29 06:41:05;;;;;;;61.13;35.17;;;;;;;23.22;35.18;99503.31;5131268;27;20284;-51
2022/03/29 06:43:34;;;;;;;50.20;31.35;;;;;;;23.53;34.32;99494.56;5130519;27;20651;-52
2022/03/29 06:46:03;;;;;;;43.17;29.02;;;;;;;24.21;33.37;99503.84;5122785;27;20268;-52
2022/03/29 06:48:30;;;;;;;42.58;29.83;;;;;;;25.00;32.06;99496.13;5130861;27;20229;-51
2022/03/29 06:50:58;;;;;;;41.40;26.48;;;;;;;25.08;31.52;99499.78;5131066;27;20204;-52
2022/03/29 06:53:25;;;;;;;52.30;29.85;;;;;;;25.19;31.52;99494.34;5131053;27;20205;-52
2022/03/29 06:55:52;;;;;;;33.75;25.30;;;;;;;25.44;30.96;99482.34;5123780;27;20573;-53
2022/03/29 06:58:19;;;;;;;30.75;21.63;;;;;;;25.31;30.45;99487.09;5114196;28;20186;-53
2022/03/29 07:00:46;;;;;;;32.63;22.15;;;;;;;25.38;30.42;99490.88;5128980;27;20197;-53
2022/03/29 07:03:15;;;;;;;34.15;20.67;;;;;;;25.84;29.86;99490.22;5125656;27;20216;-52
2022/03/29 07:05:42;;;;;;;29.92;21.70;;;;;;;25.82;29.88;99489.50;5117030;28;20218;-52
2022/03/29 07:08:10;;;;;;;31.50;19.92;;;;;;;25.83;29.78;99485.03;5116994;28;20202;-52
2022/03/29 07:13:30;;;;;;;21.85;17.48;;;;;;;25.48;29.24;99466.97;5091131;28;20256;-53
2022/03/29 07:15:57;;;;;;;29.45;19.98;;;;;;;25.68;29.35;99473.97;5129524;28;20308;-52
2022/03/29 07:18:25;;;;;;;28.42;21.33;;;;;;;25.81;29.54;99479.84;5129609;28;20232;-53
2022/03/29 07:20:52;;;;;;;32.05;20.35;;;;;;;26.69;28.72;99481.28;5130412;28;20194;-53
2022/03/29 07:23:19;;;;;;;37.28;19.92;;;;;;;27.08;27.95;99472.16;5130453;28;20589;-54
2022/03/29 07:25:46;;;;;;;21.73;16.95;;;;;;;27.88;25.87;99472.25;5130473;28;20222;-51
2022/03/29 07:28:13;;;;;;;24.92;16.00;;;;;;;28.26;25.54;99473.69;5130634;28;20204;-52
2022/03/29 07:30:43;;;;;;;24.88;16.60;;;;;;;28.12;25.96;99462.53;5130277;28;20230;-51
2022/03/29 07:33:11;;;;;;;20.92;16.55;;;;;;;27.86;25.97;99472.38;5130637;28;20277;-52
2022/03/29 07:35:40;;;;;;;26.27;16.38;;;;;;;28.44;25.09;99474.47;5130352;28;20193;-51
2022/03/29 07:38:09;;;;;;;20.98;17.35;;;;;;;29.34;24.39;99468.44;5113479;28;20304;-51
2022/03/29 07:40:37;;;;;;;28.60;17.58;;;;;;;29.92;23.69;99465.63;5112029;28;20593;-52
2022/03/29 07:43:05;;;;;;;29.60;18.55;;;;;;;30.79;22.94;99460.41;5114281;28;20193;-51
2022/03/29 07:45:33;;;;;;;24.33;18.70;;;;;;;31.04;22.51;99459.25;5118728;28;20219;-51
2022/03/29 07:48:02;;;;;;;21.52;18.88;;;;;;;32.04;21.85;99460.06;5117860;28;20650;-53
2022/03/29 07:50:29;;;;;;;18.40;16.70;;;;;;;32.75;20.93;99461.31;5119087;28;20692;-52
2022/03/29 07:52:59;;;;;;;21.70;19.00;;;;;;;33.21;20.36;99466.38;5119070;28;20199;-51
2022/03/29 07:55:27;;;;;;;19.90;17.80;;;;;;;33.08;19.99;99454.47;5118569;27;20187;-52
2022/03/29 07:57:55;;;;;;;25.13;18.92;;;;;;;32.40;21.23;99458.34;5122098;27;20193;-52
2022/03/29 08:00:34;;;;;;;33.95;19.02;;;;;;;33.10;20.23;99448.91;5123859;27;20205;-52
2022/03/29 08:03:02;;;;;;;30.92;18.33;;;;;;;34.27;19.69;99450.19;5123866;27;20272;-53
2022/03/29 08:05:29;;;;;;;26.15;19.00;;;;;;;34.81;18.92;99436.78;5122411;27;20706;-52
2022/03/29 08:07:58;;;;;;;21.17;17.15;;;;;;;34.37;18.96;99445.28;5121882;27;20236;-53
2022/03/29 08:10:27;;;;;;;20.88;17.77;;;;;;;34.06;19.69;99442.16;5119213;27;20655;-51
2022/03/29 08:12:55;;;;;;;26.88;18.08;;;;;;;33.59;19.88;99445.47;5122276;27;20194;-52
2022/03/29 08:15:22;;;;;;;20.65;18.55;;;;;;;32.30;20.77;99433.59;5123384;27;20186;-53
2022/03/29 08:17:49;;;;;;;20.73;18.15;;;;;;;32.48;20.61;99435.94;5121841;27;20198;-52
2022/03/29 08:20:16;;;;;;;21.67;18.98;;;;;;;32.26;20.78;99426.97;5126923;27;20204;-52
2022/03/29 08:22:44;;;;;;;22.88;18.77;;;;;;;32.43;20.56;99422.22;5116709;27;20562;-52
2022/03/29 08:25:14;;;;;;;30.73;20.30;;;;;;;32.67;20.14;99418.38;5112896;28;20616;-52
2022/03/29 08:27:41;;;;;;;26.38;21.40;;;;;;;30.47;21.91;99422.03;5112383;28;20831;-53
2022/03/29 08:30:10;;;;;;;25.52;19.13;;;;;;;29.08;23.20;99417.78;5115008;27;20204;-51
2022/03/29 08:32:37;;;;;;;24.63;18.85;;;;;;;27.53;24.77;99406.44;5122248;27;20206;-52
2022/03/29 08:35:05;;;;;;;25.20;19.45;;;;;;;26.46;25.94;99400.97;5108169;27;20240;-53
2022/03/29 08:37:32;;;;;;;23.13;18.33;;;;;;;25.70;27.02;99396.75;5126079;27;20237;-53
2022/03/29 08:39:59;;;;;;;16.80;15.07;;;;;;;25.04;27.03;99386.00;5125613;27;20309;-52
2022/03/29 08:42:27;;;;;;;15.55;13.02;;;;;;;24.51;27.44;99391.59;5117545;27;20218;-52
2022/03/29 08:44:54;;;;;;;15.27;13.70;;;;;;;24.40;27.81;99383.72;5120388;27;20228;-52
2022/03/29 08:47:21;;;;;;;18.27;14.15;;;;;;;23.94;28.61;99370.94;5122755;27;20217;-52
2022/03/29 08:49:49;;;;;;;20.92;13.70;;;;;;;23.79;28.67;99368.66;5129961;27;20641;-52
2022/03/29 08:52:20;;;;;;;15.32;13.52;;;;;;;23.97;28.37;99345.03;5111592;28;20569;-52
2022/03/29 08:54:47;;;;;;;20.08;13.95;;;;;;;23.86;28.70;99347.75;5125186;27;20224;-53
2022/03/29 08:57:14;;;;;;;18.27;14.25;;;;;;;23.73;28.94;99363.03;5127929;27;20218;-52
2022/03/29 08:59:43;;;;;;;16.52;14.35;;;;;;;23.44;29.57;99360.19;5122400;27;20640;-52
2022/03/29 09:02:11;;;;;;;17.45;14.00;;;;;;;23.51;29.34;99356.06;5111484;28;20203;-53
2022/03/29 09:04:38;;;;;;;22.30;14.00;;;;;;;23.61;29.70;99348.19;5114161;27;20192;-52
2022/03/29 09:07:06;;;;;;;19.25;14.60;;;;;;;22.87;30.45;99342.88;5130709;27;20202;-52
2022/03/29 09:09:34;;;;;;;19.95;14.60;;;;;;;22.45;31.20;99332.16;5132110;27;20194;-52
2022/03/29 09:12:12;;;;;;;18.33;14.20;;;;;;;22.52;31.00;99336.94;5115821;27;20835;-52
2022/03/29 09:14:54;;;;;;;19.02;14.05;;;;;;;22.28;31.18;99308.88;5111370;28;20238;-53
2022/03/29 09:17:33;;;;;;;16.80;14.40;;;;;;;21.99;31.62;99321.78;5117331;27;20218;-53
2022/03/29 09:20:00;;;;;;;20.25;13.77;;;;;;;22.44;31.39;99322.53;5119410;27;20255;-52
2022/03/29 09:22:39;;;;;;;18.63;13.57;;;;;;;22.28;31.75;99311.50;5120829;27;20681;-52
2022/03/29 09:25:07;;;;;;;19.63;14.38;;;;;;;22.55;31.10;99316.38;5112179;27;20218;-52
2022/03/29 09:27:53;;;;;;;18.25;14.05;;;;;;;22.54;30.92;99296.19;5111369;28;20713;-52
2022/03/29 09:30:22;;;;;;;21.17;15.30;;;;;;;22.48;31.26;99301.97;5122621;27;20277;-51
2022/03/29 09:32:57;;;;;;;19.58;14.35;;;;;;;22.64;30.87;99290.97;5124677;27;20190;-52
2022/03/29 09:35:25;;;;;;;20.20;14.30;;;;;;;23.24;30.06;99292.19;5113411;27;20200;-51
2022/03/29 09:37:52;;;;;;;16.50;12.80;;;;;;;23.12;29.77;99289.59;5119110;27;20198;-51
2022/03/29 09:40:19;;;;;;;15.27;12.75;;;;;;;23.33;29.26;99286.94;5120117;27;20190;-52
2022/03/29 09:43:03;;;;;;;19.73;13.25;;;;;;;24.04;28.35;99279.06;5131432;27;20255;-53
2022/03/29 09:45:47;;;;;;;16.65;13.05;;;;;;;24.19;28.42;99270.56;5130820;27;20772;-52
2022/03/29 09:48:28;;;;;;;17.20;13.27;;;;;;;24.05;28.32;99267.44;5131311;27;20205;-52
2022/03/29 09:50:58;;;;;;;20.63;14.02;;;;;;;23.79;28.68;99252.06;5126989;27;20196;-54
2022/03/29 09:53:38;;;;;;;17.95;14.00;;;;;;;23.74;29.22;99251.59;5127055;27;20197;-53
2022/03/29 09:56:06;;;;;;;22.23;13.32;;;;;;;23.69;29.50;99261.78;5131055;27;20197;-53
2022/03/29 09:58:33;;;;;;;15.02;13.52;;;;;;;23.35;30.16;99257.69;5131037;27;20194;-52
2022/03/29 10:01:02;;;;;;;14.85;13.05;;;;;;;22.91;30.30;99249.00;5131263;27;20673;-53
2022/03/29 10:03:29;;;;;;;17.98;13.90;;;;;;;22.30;31.63;99238.19;5130843;27;20220;-53
2022/03/29 10:06:03;;;;;;;17.92;13.95;;;;;;;22.35;30.85;99240.44;5092835;27;20226;-53
2022/03/29 10:11:17;;;;;;;18.70;13.35;;;;;;;21.81;32.57;99214.84;5109850;28;20222;-53
2022/03/29 10:13:45;;;;;;;16.75;13.93;;;;;;;21.74;31.85;99230.34;5110133;28;20222;-54
2022/03/29 10:16:16;;;;;;;22.13;13.15;;;;;;;21.27;32.65;99210.28;5109766;28;20227;-53
2022/03/29 10:18:44;;;;;;;21.20;14.32;;;;;;;21.18;32.92;99205.72;5108902;28;20222;-53
2022/03/29 10:21:13;;;;;;;24.08;13.60;;;;;;;21.22;32.74;99206.34;5109073;28;20232;-53
2022/03/29 10:23:40;;;;;;;18.45;12.82;;;;;;;21.15;32.62;99210.38;5109944;28;20230;-53
2022/03/29 10:26:08;;;;;;;32.30;13.40;;;;;;;20.96;33.32;99201.22;5115698;27;20316;-53
2022/03/29 10:28:35;;;;;;;21.27;12.93;;;;;;;20.96;33.21;99195.97;5124807;27;20270;-54
2022/03/29 10:31:02;;;;;;;22.15;13.80;;;;;;;20.92;33.47;99188.38;5123252;27;20589;-52
2022/03/29 10:33:33;;;;;;;22.83;13.60;;;;;;;20.95;33.98;99183.72;5121009;27;20220;-54
2022/03/29 10:36:09;;;;;;;18.65;13.15;;;;;;;21.04;33.49;99179.53;5115072;27;20717;-53
2022/03/29 10:38:56;;;;;;;19.50;13.43;;;;;;;21.14;33.19;99177.00;5111792;27;20217;-53
2022/03/29 10:41:52;;;;;;;21.67;13.63;;;;;;;21.00;33.98;99175.44;5108489;27;20214;-53
2022/03/29 10:44:19;;;;;;;21.30;14.32;;;;;;;21.10;33.24;99171.16;5109535;27;20218;-51
2022/03/29 10:46:47;;;;;;;22.52;13.80;;;;;;;21.18;33.91;99163.50;5123495;27;20264;-50
2022/03/29 10:49:21;;;;;;;19.13;13.07;;;;;;;21.21;33.00;99158.00;5119543;27;20227;-51
2022/03/29 10:51:48;;;;;;;19.13;13.15;;;;;;;21.41;32.93;99163.50;5109075;28;20303;-52
2022/03/29 10:54:26;;;;;;;20.45;13.00;;;;;;;21.32;33.21;99157.16;5109300;28;20255;-52
2022/03/29 10:56:58;;;;;;;23.27;12.70;;;;;;;21.37;32.83;99152.34;5107566;28;20641;-52
2022/03/29 10:59:25;;;;;;;24.50;12.77;;;;;;;21.22;32.32;99143.00;5112047;27;20685;-51
2022/03/29 11:02:09;;;;;;;32.45;13.57;;;;;;;21.27;32.48;99143.47;5125265;27;20218;-51
2022/03/29 11:04:58;;;;;;;27.45;12.88;;;;;;;21.29;32.67;99133.63;5127582;27;20229;-52
2022/03/29 11:07:25;;;;;;;17.23;13.35;;;;;;;21.21;32.83;99126.31;5127960;27;20333;-52
2022/03/29 11:10:10;;;;;;;20.05;12.93;;;;;;;20.98;32.74;99109.63;5129486;28;20248;-52
2022/03/29 11:12:46;;;;;;;18.85;12.93;;;;;;;21.08;32.82;99120.28;5129700;28;20222;-52
2022/03/29 11:15:39;;;;;;;17.83;12.77;;;;;;;21.13;32.82;99117.25;5129586;27;20574;-52
2022/03/29 11:18:37;;;;;;;15.23;12.18;;;;;;;21.19;32.66;99109.75;5130055;28;20711;-55
2022/03/29 11:21:06;;;;;;;25.50;12.20;;;;;;;21.30;32.49;99112.38;5115176;28;20233;-54
2022/03/29 11:23:34;;;;;;;17.30;12.43;;;;;;;21.37;32.28;99102.16;5111599;28;20609;-53
2022/03/29 11:26:05;;;;;;;20.60;12.25;;;;;;;21.45;32.26;99099.75;5108778;28;20234;-54
2022/03/29 11:28:32;;;;;;;21.30;12.38;;;;;;;21.45;32.41;99090.97;5109521;28;20705;-52
2022/03/29 11:30:59;;;;;;;22.92;12.10;;;;;;;21.40;32.04;99083.44;5113176;28;20232;-53
2022/03/29 11:33:34;;;;;;;16.85;11.55;;;;;;;21.29;31.99;99089.59;5113674;28;20229;-52